createdAt,value
2019-04-23T00:02:48.897Z,15.70
2019-04-23T00:05:29.063Z,15.70
2019-04-23T00:07:56.137Z,15.60
2019-04-23T00:12:57.313Z,15.50
2019-04-23T00:15:45.271Z,15.50
2019-04-23T00:18:22.489Z,15.40
2019-04-23T00:20:50.288Z,15.40
2019-04-23T00:23:39.665Z,15.40
2019-04-23T00:26:12.484Z,15.30
2019-04-23T00:28:45.570Z,15.30
2019-04-23T00:31:18.440Z,15.20
2019-04-23T00:33:40.886Z,15.20
2019-04-23T00:36:19.712Z,15.20
2019-04-23T00:38:45.514Z,15.10
2019-04-23T00:41:16.590Z,15.10
2019-04-23T00:46:22.356Z,15.00
2019-04-23T00:48:57.957Z,14.90
2019-04-23T00:51:22.358Z,14.90
2019-04-23T00:53:51.872Z,14.80
2019-04-23T00:56:38.253Z,14.80
2019-04-23T00:58:55.203Z,14.80
2019-04-23T01:01:36.937Z,14.70
2019-04-23T01:04:02.347Z,14.70
2019-04-23T01:06:29.097Z,14.60
2019-04-23T01:09:02.235Z,14.60
2019-04-23T01:11:34.261Z,14.60
2019-04-23T01:14:08.261Z,14.50
2019-04-23T01:16:37.361Z,14.50
2019-04-23T01:19:20.727Z,14.50
2019-04-23T01:21:32.620Z,14.40
2019-04-23T01:24:26.990Z,14.30
2019-04-23T01:27:44.632Z,14.30
2019-04-23T01:32:36.760Z,14.20
2019-04-23T01:37:49.322Z,14.10
2019-04-23T01:40:26.561Z,14.10
2019-04-23T01:42:44.986Z,14.00
2019-04-23T01:45:26.000Z,14.00
2019-04-23T01:47:49.777Z,14.00
2019-04-23T01:58:07.043Z,13.80
2019-04-23T02:00:30.648Z,13.80
2019-04-23T02:03:15.464Z,13.70
2019-04-23T02:05:34.901Z,13.60
2019-04-23T02:10:48.765Z,13.60
2019-04-23T02:13:12.587Z,13.50
2019-04-23T02:15:42.414Z,13.50
2019-04-23T02:20:47.855Z,13.40
2019-04-23T02:23:32.211Z,13.40
2019-04-23T02:26:15.697Z,13.40
2019-04-23T02:28:44.685Z,13.30
2019-04-23T02:31:21.137Z,13.30
2019-04-23T02:36:24.597Z,13.20
2019-04-23T02:38:52.399Z,13.20
2019-04-23T02:43:33.421Z,13.10
2019-04-23T02:46:09.327Z,13.00
2019-04-23T02:49:00.083Z,13.00
2019-04-23T02:51:49.005Z,13.00
2019-04-23T02:56:30.912Z,13.00
2019-04-23T03:03:59.565Z,12.80
2019-04-23T03:06:29.986Z,12.80
2019-04-23T03:11:34.319Z,12.70
2019-04-23T03:14:18.500Z,12.70
2019-04-23T03:16:56.586Z,12.60
2019-04-23T03:19:32.267Z,12.60
2019-04-23T03:25:10.603Z,12.50
2019-04-23T03:30:12.218Z,12.40
2019-04-23T03:32:45.668Z,12.40
2019-04-23T03:42:42.754Z,12.20
2019-04-23T03:55:10.313Z,12.00
2019-04-23T03:57:38.360Z,11.90
2019-04-23T04:00:31.079Z,11.90
2019-04-23T04:05:22.391Z,11.80
2019-04-23T04:08:00.711Z,11.80
2019-04-23T04:10:16.032Z,11.80
2019-04-23T04:12:46.424Z,11.70
2019-04-23T04:15:43.786Z,11.70
2019-04-23T04:20:34.406Z,11.70
2019-04-23T04:25:37.492Z,11.70
2019-04-23T04:33:31.592Z,11.60
2019-04-23T04:35:58.400Z,11.60
2019-04-23T04:38:36.934Z,11.50
2019-04-23T04:41:04.272Z,11.60
2019-04-23T04:43:31.859Z,11.60
2019-04-23T04:48:54.892Z,11.60
2019-04-23T04:51:20.745Z,11.60
2019-04-23T04:56:18.981Z,11.60
2019-04-23T04:58:52.916Z,11.60
2019-04-23T05:01:28.316Z,11.70
2019-04-23T05:03:50.783Z,11.90
2019-04-23T05:06:22.635Z,11.90
2019-04-23T05:08:54.473Z,11.90
2019-04-23T05:11:54.242Z,11.90
2019-04-23T05:14:13.641Z,11.90
2019-04-23T05:16:49.034Z,12.40
2019-04-23T05:21:55.638Z,13.30
2019-04-23T05:26:49.634Z,14.00
2019-04-23T05:29:14.592Z,14.20
2019-04-23T05:31:54.935Z,14.40
2019-04-23T05:34:20.795Z,14.30
2019-04-23T05:39:36.027Z,13.70
2019-04-23T05:41:58.921Z,13.50
2019-04-23T05:44:38.295Z,13.60
2019-04-23T05:47:11.846Z,13.50
2019-04-23T05:49:31.283Z,13.50
2019-04-23T05:54:46.460Z,13.30
2019-04-23T05:57:09.890Z,13.20
2019-04-23T05:59:40.070Z,13.20
2019-04-23T06:02:26.224Z,13.30
2019-04-23T06:04:48.145Z,13.40
2019-04-23T06:09:52.161Z,13.50
2019-04-23T06:12:18.731Z,13.50
2019-04-23T06:14:52.550Z,13.50
2019-04-23T06:17:21.678Z,13.60
2019-04-23T06:19:57.097Z,13.60
2019-04-23T06:22:35.344Z,13.80
2019-04-23T06:25:01.274Z,13.90
2019-04-23T06:29:57.414Z,14.20
2019-04-23T06:32:34.238Z,14.40
2019-04-23T06:35:15.149Z,14.40
2019-04-23T06:37:49.604Z,14.60
2019-04-23T06:40:08.704Z,14.60
2019-04-23T06:42:52.058Z,14.40
2019-04-23T06:45:24.125Z,14.20
2019-04-23T06:47:56.007Z,14.20
2019-04-23T06:50:27.195Z,14.10
2019-04-23T06:52:57.225Z,14.10
2019-04-23T06:58:10.566Z,14.10
2019-04-23T07:00:35.295Z,14.10
2019-04-23T07:03:11.416Z,14.10
2019-04-23T07:06:12.047Z,14.00
2019-04-23T07:08:39.925Z,13.90
2019-04-23T07:11:12.212Z,14.00
2019-04-23T07:13:40.036Z,14.10
2019-04-23T07:16:04.635Z,14.20
2019-04-23T07:18:38.017Z,14.40
2019-04-23T07:21:15.462Z,14.60
2019-04-23T07:23:52.670Z,14.80
2019-04-23T07:26:25.773Z,14.90
2019-04-23T07:31:20.349Z,15.00
2019-04-23T07:33:52.162Z,15.10
2019-04-23T07:36:24.382Z,15.20
2019-04-23T07:41:54.913Z,15.60
2019-04-23T07:44:42.569Z,15.70
2019-04-23T07:50:00.784Z,16.00
2019-04-23T07:52:24.277Z,16.20
2019-04-23T07:54:52.653Z,16.20
2019-04-23T07:57:29.181Z,16.30
2019-04-23T07:59:53.400Z,16.60
2019-04-23T08:02:27.506Z,16.90
2019-04-23T08:05:11.634Z,17.10
2019-04-23T08:07:29.717Z,17.20
2019-04-23T08:10:00.263Z,17.40
2019-04-23T08:12:31.577Z,17.60
2019-04-23T08:15:20.175Z,17.80
2019-04-23T08:17:35.855Z,17.90
2019-04-23T08:20:09.452Z,18.00
2019-04-23T08:22:43.378Z,17.80
2019-04-23T08:25:47.049Z,17.70
2019-04-23T08:28:29.423Z,17.80
2019-04-23T08:30:52.742Z,17.60
2019-04-23T08:33:17.264Z,17.60
2019-04-23T08:35:57.642Z,17.70
2019-04-23T08:38:29.394Z,17.60
2019-04-23T08:41:12.368Z,17.50
2019-04-23T08:43:40.710Z,17.50
2019-04-23T08:46:46.704Z,17.40
2019-04-23T08:49:03.345Z,17.40
2019-04-23T08:51:44.165Z,17.50
2019-04-23T08:54:11.655Z,17.60
2019-04-23T08:56:44.561Z,17.50
2019-04-23T08:59:22.509Z,17.60
2019-04-23T09:01:57.962Z,17.70
2019-04-23T09:04:11.116Z,17.90
2019-04-23T09:06:47.178Z,18.10
2019-04-23T09:09:24.876Z,18.20
2019-04-23T09:14:07.208Z,18.10
2019-04-23T09:16:51.470Z,17.90
2019-04-23T09:19:24.013Z,17.70
2019-04-23T09:22:00.545Z,17.70
2019-04-23T09:24:27.762Z,17.70
2019-04-23T09:27:03.922Z,17.70
2019-04-23T09:29:32.510Z,17.80
2019-04-23T09:32:24.899Z,18.00
2019-04-23T09:37:42.234Z,18.20
2019-04-23T09:40:50.411Z,18.20
2019-04-23T09:43:25.371Z,18.30
2019-04-23T09:46:15.095Z,18.20
2019-04-23T09:48:44.275Z,18.30
2019-04-23T09:53:47.253Z,18.50
2019-04-23T09:56:17.698Z,18.50
2019-04-23T09:58:49.953Z,18.50
2019-04-23T10:01:27.734Z,18.60
2019-04-23T10:03:46.281Z,18.70
2019-04-23T10:06:13.982Z,18.70
2019-04-23T10:08:42.952Z,18.90
2019-04-23T10:11:09.449Z,19.00
2019-04-23T10:13:40.675Z,19.10
2019-04-23T10:16:15.204Z,19.20
2019-04-23T10:18:41.926Z,19.30
2019-04-23T10:21:13.046Z,19.40
2019-04-23T10:23:43.272Z,19.40
2019-04-23T10:26:14.250Z,19.50
2019-04-23T10:28:51.558Z,19.50
2019-04-23T10:31:24.940Z,19.60
2019-04-23T10:33:53.257Z,19.70
2019-04-23T10:36:25.844Z,19.80
2019-04-23T10:39:00.537Z,19.90
2019-04-23T10:41:25.903Z,20.00
2019-04-23T10:44:00.737Z,20.00
2019-04-23T10:47:12.363Z,20.10
2019-04-23T10:50:07.424Z,20.10
2019-04-23T10:52:41.034Z,20.00
2019-04-23T10:55:14.548Z,20.10
2019-04-23T10:57:39.247Z,20.00
2019-04-23T11:00:17.616Z,20.10
2019-04-23T11:02:53.780Z,20.10
2019-04-23T11:05:44.541Z,20.30
2019-04-23T11:08:08.691Z,20.30
2019-04-23T11:10:33.230Z,20.20
2019-04-23T11:13:17.529Z,20.00
2019-04-23T11:16:08.970Z,19.90
2019-04-23T11:18:24.611Z,19.80
2019-04-23T11:20:56.417Z,19.80
2019-04-23T11:23:34.432Z,19.80
2019-04-23T11:28:37.793Z,19.80
2019-04-23T11:31:41.131Z,19.70
2019-04-23T11:39:16.501Z,19.50
2019-04-23T11:44:34.238Z,19.50
2019-04-23T11:47:13.493Z,19.40
2019-04-23T11:49:53.307Z,19.50
2019-04-23T11:52:34.427Z,19.60
2019-04-23T11:55:08.843Z,19.60
2019-04-23T12:00:14.572Z,19.80
2019-04-23T12:03:04.191Z,19.90
2019-04-23T12:06:11.529Z,19.90
2019-04-23T12:09:15.995Z,19.90
2019-04-23T12:12:11.244Z,20.10
2019-04-23T12:15:18.097Z,20.20
2019-04-23T12:17:42.349Z,20.20
2019-04-23T12:20:22.963Z,20.30
2019-04-23T12:25:31.007Z,20.60
2019-04-23T12:27:52.221Z,20.70
2019-04-23T12:33:10.593Z,20.90
2019-04-23T12:35:39.319Z,21.00
2019-04-23T12:43:23.305Z,20.90
2019-04-23T12:45:56.594Z,20.80
2019-04-23T12:48:46.851Z,20.80
2019-04-23T12:51:27.592Z,20.80
2019-04-23T12:53:59.567Z,21.00
2019-04-23T12:56:48.099Z,21.10
2019-04-23T12:59:22.156Z,21.00
2019-04-23T13:02:22.897Z,21.10
2019-04-23T13:04:48.408Z,21.10
2019-04-23T13:07:29.283Z,21.10
2019-04-23T13:10:09.181Z,21.20
2019-04-23T13:20:23.109Z,21.20
2019-04-23T13:23:13.385Z,21.20
2019-04-23T13:28:29.559Z,21.20
2019-04-23T13:31:00.787Z,21.40
2019-04-23T13:33:40.542Z,21.30
2019-04-23T13:38:40.497Z,21.40
2019-04-23T13:43:48.217Z,21.20
2019-04-23T13:46:39.900Z,21.20
2019-04-23T13:49:03.844Z,21.20
2019-04-23T13:51:39.471Z,21.10
2019-04-23T13:54:42.088Z,21.00
2019-04-23T13:57:24.024Z,21.10
2019-04-23T13:59:41.689Z,21.10
2019-04-23T14:02:04.130Z,21.00
2019-04-23T14:05:02.563Z,21.00
2019-04-23T14:07:38.425Z,21.10
2019-04-23T14:10:27.042Z,21.00
2019-04-23T14:13:01.920Z,21.00
2019-04-23T14:18:13.291Z,21.10
2019-04-23T14:20:21.148Z,21.00
2019-04-23T14:23:08.596Z,21.10
2019-04-23T14:25:41.519Z,21.10
2019-04-23T14:28:25.005Z,21.20
2019-04-23T14:30:53.523Z,21.30
2019-04-23T14:33:37.982Z,21.40
2019-04-23T14:36:02.810Z,21.30
2019-04-23T14:38:40.079Z,21.20
2019-04-23T14:43:49.551Z,21.30
2019-04-23T14:46:43.853Z,21.30
2019-04-23T14:51:32.172Z,21.40
2019-04-23T14:54:23.386Z,21.50
2019-04-23T14:56:35.049Z,21.50
2019-04-23T14:59:07.389Z,21.40
2019-04-23T15:01:40.040Z,21.20
2019-04-23T15:04:20.462Z,21.10
2019-04-23T15:12:16.066Z,21.10
2019-04-23T15:14:48.204Z,21.10
2019-04-23T15:17:15.836Z,21.00
2019-04-23T15:19:55.350Z,21.00
2019-04-23T15:22:21.811Z,21.10
2019-04-23T15:25:10.737Z,21.00
2019-04-23T15:28:06.226Z,21.00
2019-04-23T15:29:57.745Z,20.90
2019-04-23T15:32:43.791Z,20.80
2019-04-23T15:43:02.757Z,20.90
2019-04-23T15:45:30.493Z,20.90
2019-04-23T15:48:04.973Z,20.90
2019-04-23T15:50:35.707Z,20.80
2019-04-23T15:53:07.551Z,20.80
2019-04-23T15:55:56.550Z,20.90
2019-04-23T15:58:28.199Z,20.90
2019-04-23T16:01:31.983Z,20.90
2019-04-23T16:03:29.540Z,20.90
2019-04-23T16:05:59.872Z,21.00
2019-04-23T16:14:28.681Z,20.90
2019-04-23T16:16:51.319Z,20.90
2019-04-23T16:19:29.119Z,20.90
2019-04-23T16:22:13.226Z,21.00
2019-04-23T16:25:01.000Z,20.90
2019-04-23T16:27:19.577Z,20.80
2019-04-23T16:38:26.633Z,20.60
2019-04-23T16:40:58.752Z,20.60
2019-04-23T16:43:30.310Z,20.60
2019-04-23T16:46:08.077Z,20.60
2019-04-23T16:48:47.870Z,20.60
2019-04-23T16:54:01.669Z,20.60
2019-04-23T16:56:42.810Z,20.50
2019-04-23T16:59:13.836Z,20.40
2019-04-23T17:01:35.357Z,20.40
2019-04-23T17:04:17.900Z,20.40
2019-04-23T17:06:57.729Z,20.40
2019-04-23T17:09:35.560Z,20.40
2019-04-23T17:12:09.975Z,20.40
2019-04-23T17:14:44.350Z,20.40
2019-04-23T17:17:16.337Z,20.40
2019-04-23T17:19:50.572Z,20.40
2019-04-23T17:22:26.044Z,20.40
2019-04-23T17:25:15.648Z,20.40
2019-04-23T17:30:28.662Z,20.30
2019-04-23T17:33:13.499Z,20.20
2019-04-23T17:41:31.632Z,20.20
2019-04-23T17:46:44.506Z,20.10
2019-04-23T17:49:10.784Z,20.00
2019-04-23T17:51:48.598Z,20.00
2019-04-23T17:54:19.497Z,20.00
2019-04-23T17:57:10.693Z,19.90
2019-04-23T17:59:30.649Z,19.90
2019-04-23T18:02:19.055Z,19.80
2019-04-23T18:04:43.766Z,19.80
2019-04-23T18:07:20.461Z,19.80
2019-04-23T18:12:13.216Z,19.70
2019-04-23T18:14:21.505Z,19.60
2019-04-23T18:17:13.571Z,19.60
2019-04-23T18:20:00.324Z,19.60
2019-04-23T18:22:29.522Z,19.50
2019-04-23T18:25:26.200Z,19.50
2019-04-23T18:27:50.760Z,19.40
2019-04-23T18:30:40.703Z,19.40
2019-04-23T18:33:56.767Z,19.30
2019-04-23T18:35:59.582Z,19.30
2019-04-23T18:38:31.577Z,19.20
2019-04-23T18:46:06.875Z,19.10
2019-04-23T18:51:34.220Z,19.00
2019-04-23T18:53:48.577Z,18.90
2019-04-23T18:56:30.611Z,18.90
2019-04-23T19:02:06.639Z,18.80
2019-04-23T19:05:05.108Z,18.70
2019-04-23T19:07:32.238Z,18.60
2019-04-23T19:13:23.349Z,18.60
2019-04-23T19:15:42.357Z,18.50
2019-04-23T19:18:31.925Z,18.50
2019-04-23T19:23:39.510Z,18.40
2019-04-23T19:26:15.506Z,18.40
2019-04-23T19:29:05.570Z,18.40
2019-04-23T19:31:33.276Z,18.30
2019-04-23T19:34:24.817Z,18.30
2019-04-23T19:36:59.039Z,18.20
2019-04-23T19:42:03.721Z,18.10
2019-04-23T19:44:41.215Z,18.10
2019-04-23T19:47:10.770Z,18.10
2019-04-23T19:49:50.866Z,18.00
2019-04-23T19:52:20.233Z,18.00
2019-04-23T19:57:50.402Z,17.90
2019-04-23T20:00:01.222Z,17.90
2019-04-23T20:03:06.007Z,17.80
2019-04-23T20:05:13.735Z,17.90
2019-04-23T20:07:54.844Z,17.80
2019-04-23T20:10:22.014Z,17.80
2019-04-23T20:15:35.585Z,17.70
2019-04-23T20:17:54.025Z,17.70
2019-04-23T20:20:33.720Z,17.60
2019-04-23T20:23:02.852Z,17.60
2019-04-23T20:26:11.805Z,17.60
2019-04-23T20:28:40.760Z,17.50
2019-04-23T20:31:05.289Z,17.50
2019-04-23T20:36:16.036Z,17.40
2019-04-23T20:43:49.192Z,17.40
2019-04-23T20:46:14.913Z,17.30
2019-04-23T20:51:18.745Z,17.30
2019-04-23T20:53:59.458Z,17.30
2019-04-23T20:56:27.101Z,17.30
2019-04-23T20:58:59.975Z,17.20
2019-04-23T21:01:38.275Z,17.20
2019-04-23T21:04:17.616Z,17.20
2019-04-23T21:06:44.168Z,17.10
2019-04-23T21:11:49.885Z,17.10
2019-04-23T21:14:27.190Z,17.00
2019-04-23T21:16:40.904Z,17.00
2019-04-23T21:19:25.147Z,17.00
2019-04-23T21:22:09.954Z,17.00
2019-04-23T21:24:42.859Z,16.90
2019-04-23T21:27:15.327Z,16.90
2019-04-23T21:29:57.041Z,16.80
2019-04-23T21:32:24.859Z,16.80
2019-04-23T21:34:55.921Z,16.80
2019-04-23T21:37:48.028Z,16.70
2019-04-23T21:40:55.076Z,16.70
2019-04-23T21:45:24.408Z,16.60
2019-04-23T21:48:04.571Z,16.60
2019-04-23T21:50:37.580Z,16.50
2019-04-23T21:55:39.661Z,16.50
2019-04-23T21:58:07.185Z,16.40
2019-04-23T22:00:48.450Z,16.40
2019-04-23T22:03:11.722Z,16.40
2019-04-23T22:05:42.863Z,16.40
2019-04-23T22:11:00.603Z,16.30
2019-04-23T22:13:20.631Z,16.30
2019-04-23T22:16:42.931Z,16.30
2019-04-23T22:18:12.811Z,16.30
2019-04-23T22:20:53.255Z,16.20
2019-04-23T22:23:19.555Z,16.20
2019-04-23T22:25:57.712Z,16.20
2019-04-23T22:28:27.765Z,16.10
2019-04-23T22:31:03.784Z,16.10
2019-04-23T22:33:29.364Z,16.10
2019-04-23T22:36:06.270Z,16.10
2019-04-23T22:38:25.957Z,16.00
2019-04-23T22:43:24.817Z,15.90
2019-04-23T22:48:46.384Z,15.90
2019-04-23T22:51:21.141Z,15.80
2019-04-23T22:53:46.366Z,15.80
2019-04-23T22:56:13.809Z,15.80
2019-04-23T22:58:52.909Z,15.70
2019-04-23T23:01:27.882Z,15.70
2019-04-23T23:03:58.881Z,15.60
2019-04-23T23:06:29.566Z,15.60
2019-04-23T23:09:13.540Z,15.60
2019-04-23T23:11:24.651Z,15.60
2019-04-23T23:16:28.515Z,15.50
2019-04-23T23:21:43.188Z,15.40
2019-04-23T23:24:06.298Z,15.40
2019-04-23T23:26:40.768Z,15.40
2019-04-23T23:29:05.877Z,15.30
2019-04-23T23:31:43.923Z,15.30
2019-04-23T23:42:03.010Z,15.20
2019-04-23T23:47:00.213Z,15.10
2019-04-23T23:51:50.668Z,15.10
2019-04-23T23:54:20.037Z,14.90
2019-04-23T23:59:42.257Z,15.00
